Pagina principale
METAR-TAF:

METAR-TAF

Aeroporti :

Kulusuk, Groenlandia

latitudine: 65-35N, longitudine: 037-09W, altezza: 35 m

Osservazione

Il bollettino è stato emesso 1 ora e 30 minuti fa, alle 11:20 UTC
Vento 3 kt da est/nord-est
Temperature 7°C
Umidità 87%
Pressione 1013 hPa
Visibilità 10 km o più
Nuvoloso ad un'altezza di 3800 ft

METAR: BGKK 271120Z 07003KT 9999 BKN038 07/05 Q1013

Ora: 10:50 (12:50 UTC)

Previsione

Il bollettino è stato emesso 1 ora e 35 minuti fa, alle 11:15 UTC
Previsione valida dal 27 alle 12 UTC al 27 alle 19 UTC
Vento 5 kt da direzioni variabili
Visibilità 10 km o più
Nuvoloso ad un'altezza di 5000 ft
Temporaneamente
dal 27 alle 12 UTC al 27 alle 18 UTC
Nuvoloso ad un'altezza di 2000 ft
Evoluzione graduale
dal 27 alle 13 UTC al 27 alle 15 UTC
Vento 10 kt da est/nord-est
pioggia debole, pioviggine

TAF: BGKK 271115Z 2712/2719 VRB05KT 9999 BKN050 TEMPO 2712/2718 BKN020 BECMG 2713/2715 06010KT -RADZ

Osservazioni e previsioni meteorologiche di più di 4000 aeroporti (messaggi METAR e TAF).

Le stazioni disponibili sono rappresentate dai dischi gialli e rossi sulla carta.

Puntare il mouse per vedere il nome della stazione.

Clicca sopra per visualizzare le osservazioni e previsioni meteorologiche.

Per cambiare la mappa : fare clic sui pulsanti verdi con una croce nera per ingrandire, il pulsante verde con un trattino per diminuire, o sulla freccia verde per le mappe adiacenti.


METAR-TAF: